createdAt,value
2022-12-04T00:00:35.352Z,94201.72
2022-12-04T00:03:03.109Z,94198.13
2022-12-04T00:05:30.472Z,94203.84
2022-12-04T00:07:57.850Z,94211.75
2022-12-04T00:10:25.520Z,94211.03
2022-12-04T00:12:52.872Z,94203.84
2022-12-04T00:15:27.517Z,94210.13
2022-12-04T00:17:55.483Z,94216.66
2022-12-04T00:20:23.355Z,94219.16
2022-12-04T00:22:50.973Z,94229.34
2022-12-04T00:25:19.144Z,94229.19
2022-12-04T00:27:46.801Z,94228.47
2022-12-04T00:30:14.369Z,94226.47
2022-12-04T00:32:42.225Z,94223.63
2022-12-04T00:35:10.179Z,94228.19
2022-12-04T00:37:37.680Z,94227.31
2022-12-04T00:40:06.382Z,94224.97
2022-12-04T00:42:33.905Z,94229.78
2022-12-04T00:45:01.332Z,94228.81
2022-12-04T00:47:29.049Z,94231.13
2022-12-04T00:49:56.765Z,94225.94
2022-12-04T00:52:25.688Z,94229.72
2022-12-04T00:54:53.533Z,94229.53
2022-12-04T00:57:20.922Z,94230.44
2022-12-04T00:59:48.396Z,94243.59
2022-12-04T01:02:16.239Z,94231.97
2022-12-04T01:04:43.681Z,94233.22
2022-12-04T01:07:11.144Z,94223.28
2022-12-04T01:09:38.911Z,94239.09
2022-12-04T01:12:06.494Z,94229.91
2022-12-04T01:14:33.929Z,94233.47
2022-12-04T01:17:01.798Z,94220.69
2022-12-04T01:19:29.267Z,94224.44
2022-12-04T01:21:56.661Z,94224.34
2022-12-04T01:24:24.406Z,94228.72
2022-12-04T01:26:52.140Z,94223.81
2022-12-04T01:29:19.680Z,94228.00
2022-12-04T01:31:47.430Z,94219.25
2022-12-04T01:34:14.843Z,94219.97
2022-12-04T01:36:42.242Z,94216.22
2022-12-04T01:39:10.028Z,94223.34
2022-12-04T01:41:37.385Z,94230.50
2022-12-04T01:44:12.844Z,94215.66
2022-12-04T01:46:41.958Z,94214.88
2022-12-04T01:49:14.984Z,94220.69
2022-12-04T01:51:48.198Z,94213.97
2022-12-04T01:54:21.312Z,94208.78
2022-12-04T01:56:58.495Z,94217.72
2022-12-04T01:59:31.227Z,94216.66
2022-12-04T02:02:22.659Z,94211.94
2022-12-04T02:04:50.991Z,94211.47
2022-12-04T02:07:18.296Z,94207.72
2022-12-04T02:09:46.360Z,94200.66
2022-12-04T02:12:23.689Z,94203.22
2022-12-04T02:15:07.064Z,94210.66
2022-12-04T02:17:50.149Z,94211.88
2022-12-04T02:20:22.245Z,94210.13
2022-12-04T02:23:11.801Z,94193.03
2022-12-04T02:25:55.315Z,94199.09
2022-12-04T02:28:28.835Z,94196.34
2022-12-04T02:31:00.255Z,94208.59
2022-12-04T02:33:50.884Z,94207.78
2022-12-04T02:36:24.739Z,94198.94
2022-12-04T02:38:59.471Z,94196.62
2022-12-04T02:42:07.188Z,94201.37
2022-12-04T02:44:44.096Z,94202.06
2022-12-04T02:47:19.995Z,94206.09
2022-12-04T02:49:54.347Z,94197.59
2022-12-04T02:52:29.593Z,94195.78
2022-12-04T02:55:08.017Z,94195.09
2022-12-04T02:57:41.214Z,94192.75
2022-12-04T03:00:10.172Z,94198.59
2022-12-04T03:02:58.085Z,94199.03
2022-12-04T03:05:39.928Z,94203.38
2022-12-04T03:08:19.757Z,94199.75
2022-12-04T03:10:55.389Z,94195.91
2022-12-04T03:13:31.533Z,94193.22
2022-12-04T03:16:10.048Z,94191.78
2022-12-04T03:18:56.196Z,94195.34
2022-12-04T03:21:29.976Z,94203.22
2022-12-04T03:24:12.919Z,94201.81
2022-12-04T03:27:15.244Z,94201.63
2022-12-04T03:29:58.342Z,94194.09
2022-12-04T03:32:32.211Z,94206.28
2022-12-04T03:35:04.351Z,94205.84
2022-12-04T03:37:43.716Z,94202.69
2022-12-04T03:40:22.353Z,94198.13
2022-12-04T03:43:00.259Z,94187.75
2022-12-04T03:45:34.604Z,94198.50
2022-12-04T03:48:11.656Z,94194.56
2022-12-04T03:50:47.362Z,94202.06
2022-12-04T03:53:29.806Z,94202.22
2022-12-04T03:56:07.626Z,94196.00
2022-12-04T03:58:39.806Z,94200.47
2022-12-04T04:01:12.457Z,94192.16
2022-12-04T04:03:54.761Z,94199.81
2022-12-04T04:06:33.919Z,94198.50
2022-12-04T04:09:07.952Z,94199.09
2022-12-04T04:11:47.181Z,94190.16
2022-12-04T04:14:40.480Z,94195.00
2022-12-04T04:17:37.947Z,94191.59
2022-12-04T04:20:30.869Z,94193.03
2022-12-04T04:23:21.488Z,94188.13
2022-12-04T04:25:51.905Z,94189.81
2022-12-04T04:28:40.329Z,94189.91
2022-12-04T04:31:21.607Z,94190.44
2022-12-04T04:34:23.455Z,94198.56
2022-12-04T04:37:10.153Z,94195.09
2022-12-04T04:39:45.694Z,94204.22
2022-12-04T04:42:28.147Z,94209.47
2022-12-04T04:45:06.222Z,94211.16
2022-12-04T04:48:17.170Z,94206.09
2022-12-04T04:50:45.874Z,94217.63
2022-12-04T04:53:18.148Z,94213.59
2022-12-04T04:55:46.205Z,94217.66
2022-12-04T04:58:17.670Z,94216.09
2022-12-04T05:00:48.728Z,94210.56
2022-12-04T05:03:16.480Z,94205.81
2022-12-04T05:05:44.041Z,94217.06
2022-12-04T05:08:11.485Z,94213.31
2022-12-04T05:10:39.284Z,94213.16
2022-12-04T05:13:06.668Z,94201.69
2022-12-04T05:15:34.037Z,94213.59
2022-12-04T05:18:01.768Z,94211.16
2022-12-04T05:20:29.167Z,94218.59
2022-12-04T05:22:56.603Z,94222.09
2022-12-04T05:25:24.392Z,94218.59
2022-12-04T05:27:51.885Z,94223.09
2022-12-04T05:30:19.302Z,94220.81
2022-12-04T05:32:46.980Z,94225.19
2022-12-04T05:35:14.332Z,94220.53
2022-12-04T05:37:42.942Z,94218.84
2022-12-04T05:40:11.287Z,94213.66
2022-12-04T05:42:39.776Z,94220.66
2022-12-04T05:45:07.633Z,94221.91
2022-12-04T05:47:40.145Z,94229.88
2022-12-04T05:50:09.586Z,94229.63
2022-12-04T05:52:37.324Z,94234.69
2022-12-04T05:55:06.845Z,94236.22
2022-12-04T05:57:34.106Z,94231.19
2022-12-04T06:00:01.781Z,94235.88
2022-12-04T06:02:38.495Z,94239.53
2022-12-04T06:05:06.745Z,94240.50
2022-12-04T06:07:34.150Z,94237.56
2022-12-04T06:10:01.917Z,94244.72
2022-12-04T06:12:30.626Z,94247.37
2022-12-04T06:14:59.187Z,94239.41
2022-12-04T06:17:26.513Z,94238.44
2022-12-04T06:19:56.289Z,94244.72
2022-12-04T06:22:25.229Z,94244.06
2022-12-04T06:24:52.676Z,94239.59
2022-12-04T06:27:28.710Z,94234.34
2022-12-04T06:29:56.605Z,94239.41
2022-12-04T06:32:24.927Z,94237.19
2022-12-04T06:34:53.901Z,94239.84
2022-12-04T06:37:23.504Z,94245.22
2022-12-04T06:39:51.209Z,94246.50
2022-12-04T06:42:18.558Z,94256.56
2022-12-04T06:44:45.876Z,94263.53
2022-12-04T06:47:13.507Z,94251.19
2022-12-04T06:49:40.949Z,94248.59
2022-12-04T06:52:08.297Z,94251.31
2022-12-04T06:54:35.957Z,94253.19
2022-12-04T06:57:03.257Z,94250.06
2022-12-04T06:59:30.511Z,94247.91
2022-12-04T07:01:58.603Z,94256.78
2022-12-04T07:04:26.100Z,94258.56
2022-12-04T07:06:53.609Z,94264.75
2022-12-04T07:09:21.306Z,94266.88
2022-12-04T07:11:48.877Z,94254.37
2022-12-04T07:14:16.230Z,94255.19
2022-12-04T07:16:44.115Z,94265.09
2022-12-04T07:19:14.148Z,94272.22
2022-12-04T07:21:42.691Z,94271.88
2022-12-04T07:24:15.739Z,94260.06
2022-12-04T07:26:43.510Z,94265.53
2022-12-04T07:29:11.304Z,94262.22
2022-12-04T07:31:38.785Z,94267.59
2022-12-04T07:34:06.273Z,94262.50
2022-12-04T07:36:33.941Z,94273.16
2022-12-04T07:39:01.265Z,94272.22
2022-12-04T07:41:28.692Z,94274.75
2022-12-04T07:43:56.418Z,94277.09
2022-12-04T07:46:26.843Z,94284.97
2022-12-04T07:48:58.833Z,94287.03
2022-12-04T07:51:28.980Z,94280.59
2022-12-04T07:54:03.683Z,94279.69
2022-12-04T07:56:33.771Z,94285.19
2022-12-04T07:59:01.743Z,94280.59
2022-12-04T08:01:29.101Z,94270.81
2022-12-04T08:03:58.605Z,94267.88
2022-12-04T08:06:27.059Z,94274.50
2022-12-04T08:08:54.977Z,94275.41
2022-12-04T08:11:25.050Z,94268.69
2022-12-04T08:13:57.710Z,94274.28
2022-12-04T08:16:26.328Z,94270.78
2022-12-04T08:18:54.449Z,94268.63
2022-12-04T08:21:23.966Z,94275.34
2022-12-04T08:23:54.623Z,94271.34
2022-12-04T08:26:24.123Z,94259.22
2022-12-04T08:28:56.856Z,94262.00
2022-12-04T08:31:26.719Z,94267.31
2022-12-04T08:33:57.065Z,94276.16
2022-12-04T08:36:25.093Z,94262.81
2022-12-04T08:38:52.642Z,94266.66
2022-12-04T08:41:24.203Z,94267.38
2022-12-04T08:43:56.134Z,94269.00
2022-12-04T08:46:26.474Z,94263.09
2022-12-04T08:48:54.824Z,94257.72
2022-12-04T08:51:28.686Z,94263.88
2022-12-04T08:54:01.637Z,94267.91
2022-12-04T08:56:30.223Z,94267.38
2022-12-04T08:58:58.844Z,94270.97
2022-12-04T09:01:27.274Z,94262.63
2022-12-04T09:03:55.352Z,94263.16
2022-12-04T09:06:24.170Z,94259.78
2022-12-04T09:08:56.637Z,94274.72
2022-12-04T09:11:27.755Z,94258.97
2022-12-04T09:13:56.152Z,94259.06
2022-12-04T09:16:25.475Z,94257.00
2022-12-04T09:18:53.153Z,94261.03
2022-12-04T09:21:22.772Z,94257.09
2022-12-04T09:23:51.394Z,94251.28
2022-12-04T09:26:21.719Z,94237.84
2022-12-04T09:28:50.215Z,94232.28
2022-12-04T09:31:19.060Z,94239.63
2022-12-04T09:33:46.806Z,94245.53
2022-12-04T09:36:16.502Z,94251.00
2022-12-04T09:38:46.196Z,94245.25
2022-12-04T09:41:32.420Z,94233.13
2022-12-04T09:44:15.820Z,94231.13
2022-12-04T09:46:59.147Z,94240.63
2022-12-04T09:49:36.754Z,94227.75
2022-12-04T09:52:20.298Z,94217.56
2022-12-04T09:54:51.136Z,94218.88
2022-12-04T09:57:44.379Z,94228.09
2022-12-04T10:00:15.512Z,94217.00
2022-12-04T10:02:49.618Z,94210.84
2022-12-04T10:05:29.000Z,94196.25
2022-12-04T10:08:29.333Z,94193.56
2022-12-04T10:11:15.216Z,94198.31
2022-12-04T10:14:04.121Z,94197.06
2022-12-04T10:16:50.355Z,94190.06
2022-12-04T10:19:30.349Z,94178.47
2022-12-04T10:22:24.508Z,94169.59
2022-12-04T10:24:56.489Z,94174.50
2022-12-04T10:27:23.808Z,94179.88
2022-12-04T10:29:58.489Z,94181.12
2022-12-04T10:32:31.614Z,94157.97
2022-12-04T10:35:09.133Z,94162.44
2022-12-04T10:37:41.525Z,94156.09
2022-12-04T10:40:23.461Z,94156.34
2022-12-04T10:42:57.943Z,94152.88
2022-12-04T10:45:25.524Z,94153.31
2022-12-04T10:47:53.977Z,94141.59
2022-12-04T10:50:24.283Z,94145.34
2022-12-04T10:52:52.290Z,94145.97
2022-12-04T10:55:34.875Z,94154.13
2022-12-04T10:58:03.077Z,94153.44
2022-12-04T11:00:35.701Z,94151.44
2022-12-04T11:03:09.280Z,94150.38
2022-12-04T11:05:55.709Z,94139.44
2022-12-04T11:08:26.414Z,94152.97
2022-12-04T11:11:01.602Z,94149.38
2022-12-04T11:13:29.756Z,94143.84
2022-12-04T11:15:58.766Z,94141.25
2022-12-04T11:18:30.099Z,94141.34
2022-12-04T11:21:15.572Z,94137.41
2022-12-04T11:23:49.688Z,94126.75
2022-12-04T11:26:30.298Z,94139.09
2022-12-04T11:29:01.671Z,94152.84
2022-12-04T11:31:31.493Z,94145.81
2022-12-04T11:34:03.181Z,94139.72
2022-12-04T11:36:34.489Z,94138.66
2022-12-04T11:39:07.486Z,94133.91
2022-12-04T11:41:35.274Z,94141.97
2022-12-04T11:44:02.845Z,94147.78
2022-12-04T11:46:34.289Z,94139.87
2022-12-04T11:49:03.825Z,94131.22
2022-12-04T11:51:39.898Z,94137.94
2022-12-04T11:54:26.783Z,94140.09
2022-12-04T11:57:07.199Z,94137.44
2022-12-04T11:59:59.873Z,94132.75
2022-12-04T12:02:55.146Z,94138.84
2022-12-04T12:06:15.118Z,94149.81
2022-12-04T12:08:56.387Z,94154.50
2022-12-04T12:11:33.104Z,94158.50
2022-12-04T12:14:14.637Z,94153.69
2022-12-04T12:17:30.627Z,94155.22
2022-12-04T12:20:27.917Z,94151.91
2022-12-04T12:23:12.009Z,94151.84
2022-12-04T12:25:39.443Z,94164.25
2022-12-04T12:28:25.474Z,94163.00
2022-12-04T12:31:18.458Z,94158.88
2022-12-04T12:34:11.387Z,94168.44
2022-12-04T12:36:47.643Z,94170.84
2022-12-04T12:39:20.947Z,94178.34
2022-12-04T12:41:59.273Z,94170.25
2022-12-04T12:44:45.302Z,94164.69
2022-12-04T12:47:20.101Z,94152.81
2022-12-04T12:50:06.982Z,94159.88
2022-12-04T12:53:09.847Z,94164.16
2022-12-04T12:55:44.804Z,94157.44
2022-12-04T12:58:21.517Z,94160.31
2022-12-04T13:01:02.719Z,94157.09
2022-12-04T13:03:41.281Z,94157.00
2022-12-04T13:06:19.393Z,94156.00
2022-12-04T13:09:16.822Z,94156.19
2022-12-04T13:11:47.552Z,94158.00
2022-12-04T13:14:15.000Z,94155.41
2022-12-04T13:16:48.924Z,94161.38
2022-12-04T13:19:20.023Z,94156.00
2022-12-04T13:22:08.833Z,94154.94
2022-12-04T13:24:43.511Z,94154.69
2022-12-04T13:27:35.480Z,94162.09
2022-12-04T13:30:24.192Z,94149.91
2022-12-04T13:33:22.707Z,94143.59
2022-12-04T13:36:03.887Z,94138.50
2022-12-04T13:39:16.520Z,94146.84
2022-12-04T13:41:44.310Z,94143.69
2022-12-04T13:44:19.685Z,94133.50
2022-12-04T13:46:59.013Z,94124.25
2022-12-04T13:49:32.085Z,94134.91
2022-12-04T13:52:02.450Z,94145.44
2022-12-04T13:54:33.721Z,94149.38
2022-12-04T13:57:26.371Z,94139.84
2022-12-04T14:00:33.739Z,94162.97
2022-12-04T14:03:06.283Z,94147.16
2022-12-04T14:05:43.011Z,94145.03
2022-12-04T14:08:25.822Z,94151.91
2022-12-04T14:11:03.092Z,94144.72
2022-12-04T14:13:47.891Z,94139.56
2022-12-04T14:16:40.229Z,94152.44
2022-12-04T14:19:09.169Z,94151.47
2022-12-04T14:21:45.253Z,94143.59
2022-12-04T14:24:32.027Z,94142.78
2022-12-04T14:27:15.073Z,94146.34
2022-12-04T14:29:56.785Z,94152.34
2022-12-04T14:32:32.011Z,94152.69
2022-12-04T14:35:00.355Z,94146.97
2022-12-04T14:37:41.181Z,94143.75
2022-12-04T14:40:19.987Z,94139.22
2022-12-04T14:42:49.361Z,94147.63
2022-12-04T14:45:40.228Z,94152.94
2022-12-04T14:48:35.561Z,94144.72
2022-12-04T14:51:20.755Z,94144.62
2022-12-04T14:54:00.786Z,94145.88
2022-12-04T14:56:49.897Z,94152.12
2022-12-04T14:59:22.849Z,94143.72
2022-12-04T15:01:53.937Z,94148.37
2022-12-04T15:04:33.770Z,94157.78
2022-12-04T15:07:03.193Z,94160.59
2022-12-04T15:09:49.155Z,94158.28
2022-12-04T15:12:35.002Z,94161.44
2022-12-04T15:15:27.836Z,94162.31
2022-12-04T15:18:12.298Z,94159.62
2022-12-04T15:21:01.067Z,94167.91
2022-12-04T15:23:37.712Z,94171.81
2022-12-04T15:26:11.176Z,94179.00
2022-12-04T15:28:45.870Z,94187.19
2022-12-04T15:31:22.780Z,94189.31
2022-12-04T15:33:55.780Z,94188.31
2022-12-04T15:36:51.055Z,94191.53
2022-12-04T15:39:25.825Z,94198.50
2022-12-04T15:42:06.727Z,94193.59
2022-12-04T15:44:35.947Z,94189.81
2022-12-04T15:47:17.850Z,94196.22
2022-12-04T15:49:45.711Z,94186.78
2022-12-04T15:52:17.260Z,94194.38
2022-12-04T15:54:56.923Z,94202.06
2022-12-04T15:57:40.230Z,94196.94
2022-12-04T16:00:24.300Z,94191.69
2022-12-04T16:02:52.382Z,94202.28
2022-12-04T16:05:22.850Z,94198.81
2022-12-04T16:07:56.456Z,94196.28
2022-12-04T16:10:36.233Z,94201.81
2022-12-04T16:13:05.667Z,94205.75
2022-12-04T16:15:42.623Z,94201.19
2022-12-04T16:18:13.619Z,94199.41
2022-12-04T16:20:41.740Z,94198.59
2022-12-04T16:23:09.961Z,94189.16
2022-12-04T16:25:37.311Z,94190.72
2022-12-04T16:28:05.129Z,94196.00
2022-12-04T16:30:36.275Z,94189.53
2022-12-04T16:33:04.089Z,94183.34
2022-12-04T16:35:31.971Z,94196.69
2022-12-04T16:37:59.444Z,94194.56
2022-12-04T16:40:26.866Z,94198.50
2022-12-04T16:42:54.596Z,94194.63
2022-12-04T16:45:30.868Z,94180.13
2022-12-04T16:47:58.812Z,94179.78
2022-12-04T16:50:27.417Z,94191.19
2022-12-04T16:52:54.884Z,94185.72
2022-12-04T16:55:29.570Z,94176.72
2022-12-04T16:57:57.000Z,94183.66
2022-12-04T17:00:24.886Z,94191.75
2022-12-04T17:02:52.458Z,94194.34
2022-12-04T17:05:31.891Z,94197.72
2022-12-04T17:08:00.885Z,94193.69
2022-12-04T17:10:30.300Z,94203.16
2022-12-04T17:12:57.847Z,94196.88
2022-12-04T17:15:25.678Z,94197.66
2022-12-04T17:17:53.180Z,94198.69
2022-12-04T17:20:21.582Z,94200.22
2022-12-04T17:22:49.678Z,94213.16
2022-12-04T17:25:18.525Z,94211.50
2022-12-04T17:27:46.292Z,94220.47
2022-12-04T17:30:15.188Z,94211.22
2022-12-04T17:32:42.876Z,94213.63
2022-12-04T17:35:12.438Z,94208.16
2022-12-04T17:37:40.388Z,94221.91
2022-12-04T17:40:10.708Z,94219.97
2022-12-04T17:42:38.240Z,94211.72
2022-12-04T17:45:07.360Z,94193.94
2022-12-04T17:47:36.078Z,94196.97
2022-12-04T17:50:05.647Z,94194.16
2022-12-04T17:52:33.645Z,94189.81
2022-12-04T17:55:01.108Z,94186.28
2022-12-04T17:57:28.676Z,94195.09
2022-12-04T17:59:56.461Z,94188.88
2022-12-04T18:02:23.943Z,94198.81
2022-12-04T18:04:55.708Z,94193.09
2022-12-04T18:07:23.433Z,94192.91
2022-12-04T18:09:50.926Z,94192.37
2022-12-04T18:12:18.938Z,94199.19
2022-12-04T18:14:46.555Z,94203.38
2022-12-04T18:17:13.988Z,94213.91
2022-12-04T18:19:41.835Z,94205.63
2022-12-04T18:22:09.497Z,94204.97
2022-12-04T18:24:37.375Z,94214.66
2022-12-04T18:27:05.854Z,94215.94
2022-12-04T18:29:33.484Z,94203.22
2022-12-04T18:32:01.264Z,94201.94
2022-12-04T18:34:29.201Z,94201.59
2022-12-04T18:36:56.873Z,94212.84
2022-12-04T18:39:25.753Z,94217.81
2022-12-04T18:41:57.281Z,94224.22
2022-12-04T18:44:26.265Z,94224.41
2022-12-04T18:46:54.055Z,94230.56
2022-12-04T18:49:21.489Z,94229.56
2022-12-04T18:51:50.220Z,94227.69
2022-12-04T18:54:19.361Z,94233.75
2022-12-04T18:56:46.933Z,94231.72
2022-12-04T18:59:20.494Z,94227.97
2022-12-04T19:01:50.499Z,94234.56
2022-12-04T19:04:20.476Z,94231.00
2022-12-04T19:06:56.420Z,94240.63
2022-12-04T19:12:16.388Z,94246.56
2022-12-04T19:14:44.038Z,94242.81
2022-12-04T19:17:11.949Z,94248.56
2022-12-04T19:19:39.780Z,94252.91
2022-12-04T19:22:07.311Z,94256.97
2022-12-04T19:24:34.714Z,94245.69
2022-12-04T19:27:10.272Z,94257.47
2022-12-04T19:29:42.857Z,94258.59
2022-12-04T19:32:11.891Z,94259.78
2022-12-04T19:34:39.509Z,94256.47
2022-12-04T19:37:07.821Z,94262.37
2022-12-04T19:39:35.919Z,94264.28
2022-12-04T19:42:03.341Z,94253.28
2022-12-04T19:47:19.343Z,94249.25
2022-12-04T19:49:46.946Z,94252.00
2022-12-04T19:52:14.778Z,94256.22
2022-12-04T19:54:42.714Z,94251.69
2022-12-04T19:57:10.460Z,94246.37
2022-12-04T19:59:41.718Z,94247.19
2022-12-04T20:02:11.959Z,94252.56
2022-12-04T20:04:40.242Z,94252.94
2022-12-04T20:07:07.660Z,94256.19
2022-12-04T20:09:35.197Z,94257.44
2022-12-04T20:12:03.421Z,94253.22
2022-12-04T20:14:31.012Z,94256.59
2022-12-04T20:16:59.884Z,94251.00
2022-12-04T20:19:27.662Z,94256.03
2022-12-04T20:21:59.320Z,94262.66
2022-12-04T20:24:27.810Z,94263.06
2022-12-04T20:26:55.802Z,94257.38
2022-12-04T20:29:24.727Z,94253.75
2022-12-04T20:31:52.124Z,94256.09
2022-12-04T20:34:20.069Z,94251.50
2022-12-04T20:36:48.833Z,94251.84
2022-12-04T20:39:18.199Z,94269.66
2022-12-04T20:41:46.686Z,94261.34
2022-12-04T20:44:16.773Z,94254.84
2022-12-04T20:46:44.771Z,94256.56
2022-12-04T20:49:20.791Z,94253.19
2022-12-04T20:51:49.448Z,94239.00
2022-12-04T20:54:19.680Z,94253.09
2022-12-04T20:56:49.167Z,94242.88
2022-12-04T20:59:18.854Z,94245.56
2022-12-04T21:01:47.517Z,94246.59
2022-12-04T21:04:18.092Z,94245.50
2022-12-04T21:06:47.271Z,94250.81
2022-12-04T21:09:17.740Z,94251.31
2022-12-04T21:11:55.725Z,94252.47
2022-12-04T21:14:44.860Z,94253.34
2022-12-04T21:17:19.164Z,94246.37
2022-12-04T21:19:50.647Z,94252.06
2022-12-04T21:22:19.276Z,94247.56
2022-12-04T21:24:47.252Z,94247.63
2022-12-04T21:27:20.643Z,94252.13
2022-12-04T21:29:49.419Z,94250.06
2022-12-04T21:32:18.867Z,94246.50
2022-12-04T21:34:46.302Z,94249.31
2022-12-04T21:37:14.065Z,94253.03
2022-12-04T21:39:43.242Z,94250.28
2022-12-04T21:42:29.689Z,94247.56
2022-12-04T21:45:02.227Z,94249.00
2022-12-04T21:47:30.694Z,94244.09
2022-12-04T21:49:59.052Z,94239.25
2022-12-04T21:52:26.701Z,94235.50
2022-12-04T21:54:55.042Z,94227.12
2022-12-04T21:57:23.090Z,94231.44
2022-12-04T21:59:53.720Z,94231.50
2022-12-04T22:02:23.062Z,94229.91
2022-12-04T22:04:50.921Z,94224.19
2022-12-04T22:07:18.415Z,94233.75
2022-12-04T22:09:45.956Z,94233.09
2022-12-04T22:15:01.250Z,94230.00
2022-12-04T22:17:29.977Z,94238.25
2022-12-04T22:19:57.638Z,94233.34
2022-12-04T22:22:25.262Z,94230.13
2022-12-04T22:24:52.923Z,94232.84
2022-12-04T22:27:20.394Z,94237.78
2022-12-04T22:29:50.888Z,94240.88
2022-12-04T22:32:20.262Z,94233.38
2022-12-04T22:34:49.396Z,94237.19
2022-12-04T22:37:16.862Z,94232.19
2022-12-04T22:39:44.711Z,94234.62
2022-12-04T22:42:12.102Z,94232.72
2022-12-04T22:44:39.497Z,94227.88
2022-12-04T22:47:07.338Z,94232.66
2022-12-04T22:49:34.758Z,94235.62
2022-12-04T22:52:02.314Z,94229.97
2022-12-04T22:54:30.042Z,94235.69
2022-12-04T22:56:57.514Z,94230.44
2022-12-04T22:59:24.920Z,94233.94
2022-12-04T23:01:52.630Z,94232.78
2022-12-04T23:04:20.037Z,94230.25
2022-12-04T23:06:47.407Z,94232.66
2022-12-04T23:09:17.122Z,94227.50
2022-12-04T23:11:44.515Z,94223.56
2022-12-04T23:14:15.174Z,94218.28
2022-12-04T23:16:43.303Z,94222.87
2022-12-04T23:19:13.599Z,94222.34
2022-12-04T23:21:41.778Z,94228.97
2022-12-04T23:24:11.327Z,94219.16
2022-12-04T23:26:42.531Z,94222.94
2022-12-04T23:29:29.631Z,94231.94
2022-12-04T23:31:57.688Z,94227.47
2022-12-04T23:34:25.361Z,94221.88
2022-12-04T23:36:52.688Z,94227.59
2022-12-04T23:39:20.017Z,94223.84
2022-12-04T23:41:47.751Z,94219.28
2022-12-04T23:44:14.974Z,94224.56
2022-12-04T23:46:42.361Z,94230.25
2022-12-04T23:49:10.888Z,94224.78
2022-12-04T23:51:39.138Z,94218.38
2022-12-04T23:54:06.408Z,94220.59
2022-12-04T23:56:34.158Z,94220.28
2022-12-04T23:59:01.463Z,94217.25
